Time;durP1;ratioP1;P1;durP2;ratioP2;P2;SDS_P1;SDS_P2;PMS_P1;PMS_P2;Temp;Humidity;BMP_temperature;BMP_pressure;BME280_temperature;BME280_humidity;BME280_pressure;Samples;Min_cycle;Max_cycle;Signal;HPM_P1;HPM_P2
2021/12/09 00:01:33;;;;;;;52.80;33.50;;;-0.70;91.50;;;;;;5010793;28;20455;-51
2021/12/09 00:04:04;;;;;;;60.73;34.77;;;-0.70;99.90;;;;;;5010557;28;20462;-51
2021/12/09 00:06:31;;;;;;;67.17;36.00;;;-0.60;99.90;;;;;;5008468;28;20471;-51
2021/12/09 00:09:02;;;;;;;64.83;38.73;;;-0.60;99.90;;;;;;5010387;28;20463;-52
2021/12/09 00:11:29;;;;;;;57.87;35.50;;;-0.70;94.90;;;;;;5011672;28;20459;-52
2021/12/09 00:13:57;;;;;;;68.03;39.37;;;-0.60;99.90;;;;;;5010151;28;20500;-52
2021/12/09 00:16:24;;;;;;;65.53;37.67;;;-0.60;21.80;;;;;;5006380;28;20488;-51
2021/12/09 00:18:50;;;;;;;65.17;36.23;;;-0.60;99.90;;;;;;5009798;28;20554;-49
2021/12/09 00:21:18;;;;;;;65.00;37.10;;;-0.60;99.90;;;;;;5012720;28;21274;-56
2021/12/09 00:23:47;;;;;;;62.00;37.83;;;-0.80;87.30;;;;;;5013497;28;20463;-54
2021/12/09 00:26:14;;;;;;;66.40;36.23;;;-0.70;99.90;;;;;;5011750;28;20470;-55
2021/12/09 00:28:40;;;;;;;64.13;37.30;;;-0.70;99.90;;;;;;5009764;28;20480;-48
2021/12/09 00:31:07;;;;;;;64.80;36.93;;;-0.70;94.50;;;;;;5006011;28;20491;-49
2021/12/09 00:33:40;;;;;;;63.80;37.70;;;-0.70;99.90;;;;;;5013058;28;20919;-52
2021/12/09 00:36:07;;;;;;;61.20;37.10;;;-0.70;99.90;;;;;;5010116;28;20476;-55
2021/12/09 00:38:37;;;;;;;63.80;39.23;;;-0.80;99.90;;;;;;5012199;28;20491;-50
2021/12/09 00:41:06;;;;;;;66.30;39.77;;;-0.70;94.90;;;;;;5010545;28;20841;-51
2021/12/09 00:43:33;;;;;;;70.80;40.80;;;-0.80;20.80;;;;;;5008359;28;20483;-51
2021/12/09 00:45:59;;;;;;;67.30;38.97;;;-0.70;25.30;;;;;;5008980;28;21029;-52
2021/12/09 00:48:26;;;;;;;63.97;38.60;;;-0.70;28.30;;;;;;5012042;28;20921;-52
2021/12/09 00:50:53;;;;;;;63.10;39.90;;;-0.70;25.30;;;;;;5011933;28;21083;-52
2021/12/09 00:53:20;;;;;;;62.80;38.53;;;-0.70;87.00;;;;;;5010456;28;20521;-48
2021/12/09 00:55:48;;;;;;;71.57;40.33;;;-0.80;83.70;;;;;;5009875;28;20495;-55
2021/12/09 00:58:15;;;;;;;66.50;39.00;;;-0.90;26.30;;;;;;5009988;28;21030;-49
2021/12/09 01:00:41;;;;;;;78.73;41.40;;;-0.80;79.10;;;;;;5007340;28;20480;-49
2021/12/09 01:03:08;;;;;;;69.23;41.03;;;-0.80;99.90;;;;;;4998990;28;20484;-51
2021/12/09 01:05:35;;;;;;;63.53;38.30;;;-0.90;99.90;;;;;;5011575;28;20494;-51
2021/12/09 01:08:02;;;;;;;61.20;40.57;;;-0.90;24.40;;;;;;5010001;28;20480;-51
2021/12/09 01:10:29;;;;;;;65.97;38.87;;;-0.80;22.60;;;;;;5011439;28;20889;-54
2021/12/09 01:12:57;;;;;;;77.40;42.83;;;-0.90;24.40;;;;;;5004576;28;20859;-50
2021/12/09 01:15:24;;;;;;;63.30;39.80;;;-0.80;99.90;;;;;;5001999;28;20893;-55
2021/12/09 01:17:52;;;;;;;70.37;37.53;;;-0.80;82.50;;;;;;5010587;28;20510;-48
2021/12/09 01:20:24;;;;;;;59.40;37.27;;;-0.80;95.60;;;;;;5021027;28;20460;-50
2021/12/09 01:22:53;;;;;;;64.07;38.67;;;-0.80;87.10;;;;;;5005030;28;20452;-50
2021/12/09 01:25:21;;;;;;;67.27;39.70;;;-0.80;72.50;;;;;;5009554;28;20467;-51
2021/12/09 01:27:49;;;;;;;63.27;37.40;;;-0.90;21.90;;;;;;5008690;28;20510;-51
2021/12/09 01:30:19;;;;;;;62.47;39.23;;;-0.90;26.60;;;;;;5009623;28;20464;-52
2021/12/09 01:32:51;;;;;;;59.20;37.23;;;-1.00;34.20;;;;;;5010757;28;22386;-52
2021/12/09 01:35:19;;;;;;;68.50;38.40;;;-1.00;99.90;;;;;;5001718;28;20467;-55
2021/12/09 01:37:46;;;;;;;64.50;38.60;;;-0.90;92.50;;;;;;5008142;28;20484;-56
2021/12/09 01:40:14;;;;;;;67.90;40.13;;;-0.90;20.80;;;;;;5009947;28;20467;-56
2021/12/09 01:42:41;;;;;;;59.77;38.30;;;-0.90;99.90;;;;;;5010518;28;20539;-52
2021/12/09 01:45:08;;;;;;;60.60;38.03;;;-0.90;99.90;;;;;;5006272;28;20488;-55
2021/12/09 01:47:36;;;;;;;71.13;40.43;;;-0.90;85.20;;;;;;5009144;28;20487;-55
2021/12/09 01:50:03;;;;;;;55.00;37.17;;;-0.90;20.20;;;;;;5010239;28;20510;-49
2021/12/09 01:52:30;;;;;;;64.60;38.70;;;-0.90;21.20;;;;;;5012197;28;20519;-55
2021/12/09 01:54:57;;;;;;;64.93;38.60;;;-0.90;24.30;;;;;;5005796;28;20483;-51
2021/12/09 01:57:23;;;;;;;64.87;40.33;;;-0.90;23.70;;;;;;5010886;28;21086;-52
2021/12/09 01:59:50;;;;;;;67.97;39.83;;;-1.00;22.20;;;;;;5011083;28;20609;-48
2021/12/09 02:02:17;;;;;;;58.33;38.13;;;-1.10;99.90;;;;;;5009505;28;20494;-50
2021/12/09 02:04:45;;;;;;;62.83;39.70;;;-1.00;99.90;;;;;;5008299;28;20583;-56
2021/12/09 02:07:12;;;;;;;64.80;41.47;;;-1.00;99.90;;;;;;5010298;28;20545;-48
2021/12/09 02:09:39;;;;;;;61.87;41.27;;;-1.10;84.00;;;;;;5008944;28;20981;-48
2021/12/09 02:12:07;;;;;;;63.07;39.87;;;-1.00;99.90;;;;;;5007824;28;20475;-47
2021/12/09 02:14:33;;;;;;;63.30;37.70;;;-1.00;99.90;;;;;;5008926;28;20966;-55
2021/12/09 02:17:00;;;;;;;67.87;39.20;;;-1.00;99.90;;;;;;5005283;28;20486;-48
2021/12/09 02:19:27;;;;;;;68.93;41.63;;;-1.00;99.90;;;;;;5009739;28;20510;-51
2021/12/09 02:21:55;;;;;;;61.93;38.47;;;-1.00;99.90;;;;;;5006610;28;20463;-48
2021/12/09 02:24:21;;;;;;;65.07;40.87;;;-1.00;84.10;;;;;;5010704;28;20499;-48
2021/12/09 02:26:50;;;;;;;63.13;38.93;;;-1.00;99.90;;;;;;5010005;28;20597;-54
2021/12/09 02:29:19;;;;;;;60.10;38.20;;;-1.00;99.90;;;;;;5007752;28;20464;-48
2021/12/09 02:31:46;;;;;;;65.20;39.47;;;-0.90;99.90;;;;;;5007243;28;20540;-52
2021/12/09 02:34:13;;;;;;;66.70;41.50;;;-0.90;99.90;;;;;;5008346;28;20573;-52
2021/12/09 02:36:42;;;;;;;62.33;39.50;;;-0.90;99.90;;;;;;5010236;28;20911;-55
2021/12/09 02:39:14;;;;;;;67.17;40.97;;;-1.10;92.60;;;;;;5007981;28;20463;-54
2021/12/09 02:41:42;;;;;;;64.13;40.47;;;-1.00;88.40;;;;;;5010406;28;20463;-48
2021/12/09 02:44:11;;;;;;;63.93;39.50;;;-1.00;99.90;;;;;;5010254;28;21112;-55
2021/12/09 02:46:39;;;;;;;64.10;40.43;;;-1.00;99.90;;;;;;5005988;28;20467;-52
2021/12/09 02:49:07;;;;;;;65.20;39.20;;;-0.90;99.90;;;;;;5009407;28;20978;-51
2021/12/09 02:51:36;;;;;;;72.03;39.90;;;-0.90;75.50;;;;;;5010647;28;21040;-51
2021/12/09 02:54:02;;;;;;;68.07;41.00;;;-0.90;82.00;;;;;;5010494;28;20606;-51
2021/12/09 02:56:30;;;;;;;62.13;37.97;;;-0.90;99.90;;;;;;5010934;28;20992;-48
2021/12/09 02:58:57;;;;;;;63.67;39.37;;;-0.90;75.00;;;;;;5007813;28;20550;-51
2021/12/09 03:01:27;;;;;;;59.40;38.10;;;-1.00;99.90;;;;;;5006835;28;20591;-54
2021/12/09 03:03:59;;;;;;;66.63;39.80;;;-0.90;99.90;;;;;;5009314;28;20518;-51
2021/12/09 03:06:30;;;;;;;61.73;38.43;;;-1.00;99.90;;;;;;5006020;28;20464;-51
2021/12/09 03:09:01;;;;;;;64.10;41.20;;;-1.00;99.90;;;;;;4996885;28;20460;-52
2021/12/09 03:11:27;;;;;;;61.37;38.43;;;-1.00;99.90;;;;;;5010304;28;20586;-55
2021/12/09 03:13:55;;;;;;;65.20;40.43;;;-0.90;99.90;;;;;;5005221;28;21011;-52
2021/12/09 03:16:22;;;;;;;67.63;41.40;;;-0.90;99.90;;;;;;5005662;28;20558;-51
2021/12/09 03:18:51;;;;;;;64.20;41.70;;;-0.90;99.90;;;;;;5007863;28;20550;-51
2021/12/09 03:21:20;;;;;;;60.17;38.40;;;-0.90;99.90;;;;;;5008375;28;21037;-55
2021/12/09 03:23:47;;;;;;;76.10;41.70;;;-0.80;99.90;;;;;;5008865;28;20551;-55
2021/12/09 03:26:15;;;;;;;63.23;41.50;;;-0.90;99.90;;;;;;5008806;28;20499;-51
2021/12/09 03:28:42;;;;;;;60.17;40.03;;;-0.90;99.90;;;;;;5004865;28;20981;-50
2021/12/09 03:31:10;;;;;;;66.20;40.33;;;-0.90;99.90;;;;;;5009759;28;20460;-54
2021/12/09 03:33:37;;;;;;;66.30;41.03;;;-0.90;99.90;;;;;;5010893;28;20591;-51
2021/12/09 03:36:07;;;;;;;72.10;42.70;;;-0.90;99.90;;;;;;5008880;28;20503;-56
2021/12/09 03:38:35;;;;;;;63.87;40.97;;;-0.90;99.90;;;;;;5008821;28;21019;-49
2021/12/09 03:41:02;;;;;;;64.03;40.30;;;-0.90;99.90;;;;;;5009656;28;20551;-52
2021/12/09 03:43:29;;;;;;;63.63;39.67;;;-0.90;99.90;;;;;;5007746;28;20499;-52
2021/12/09 03:45:56;;;;;;;65.70;43.23;;;-0.90;99.90;;;;;;5008506;28;20550;-49
2021/12/09 03:48:25;;;;;;;65.67;42.37;;;-0.90;99.90;;;;;;5006470;28;20487;-55
2021/12/09 03:50:52;;;;;;;67.43;42.40;;;-0.80;99.90;;;;;;5010645;28;20972;-51
2021/12/09 03:53:19;;;;;;;66.10;40.93;;;-0.90;99.90;;;;;;5008538;28;21075;-52
2021/12/09 03:55:46;;;;;;;63.00;41.40;;;-1.00;99.90;;;;;;5006947;28;20624;-51
2021/12/09 03:58:12;;;;;;;68.87;41.30;;;-0.90;99.90;;;;;;5009347;28;20590;-50
2021/12/09 04:00:40;;;;;;;74.27;44.17;;;-1.00;99.90;;;;;;5010762;28;20491;-49
2021/12/09 04:03:07;;;;;;;73.27;41.67;;;-0.90;99.90;;;;;;5013973;28;20882;-51
2021/12/09 04:05:36;;;;;;;67.43;40.70;;;-0.90;99.90;;;;;;5012373;28;20542;-51
2021/12/09 04:08:04;;;;;;;70.30;42.50;;;-0.90;99.90;;;;;;5012265;28;20570;-51
2021/12/09 04:10:32;;;;;;;80.30;43.17;;;-0.90;99.90;;;;;;5011264;28;20487;-50
2021/12/09 04:12:58;;;;;;;65.40;40.63;;;-0.90;99.90;;;;;;5013016;28;20510;-52
2021/12/09 04:15:25;;;;;;;67.53;42.23;;;-0.90;99.90;;;;;;5010488;28;20464;-49
2021/12/09 04:17:52;;;;;;;74.83;43.53;;;-1.00;99.90;;;;;;5012916;28;20510;-51
2021/12/09 04:20:20;;;;;;;72.70;44.30;;;-0.90;99.90;;;;;;5008115;28;20487;-51
2021/12/09 04:22:49;;;;;;;72.03;43.10;;;-0.90;99.90;;;;;;5011858;28;20550;-52
2021/12/09 04:25:17;;;;;;;67.70;41.73;;;-0.90;99.90;;;;;;5011923;28;20513;-50
2021/12/09 04:27:44;;;;;;;67.50;43.17;;;-1.00;99.90;;;;;;5010969;28;20499;-50
2021/12/09 04:30:11;;;;;;;67.63;41.70;;;-1.00;99.90;;;;;;5010235;28;21054;-51
2021/12/09 04:32:38;;;;;;;72.70;42.90;;;-1.00;99.90;;;;;;5011903;28;20546;-51
2021/12/09 04:35:06;;;;;;;71.50;45.17;;;-1.00;99.90;;;;;;5011091;28;21009;-51
2021/12/09 04:37:32;;;;;;;69.23;43.63;;;-1.00;99.90;;;;;;5010938;28;20562;-51
2021/12/09 04:40:01;;;;;;;71.73;42.70;;;-0.90;99.90;;;;;;5012097;28;20472;-51
2021/12/09 04:42:28;;;;;;;66.30;41.57;;;-0.90;99.90;;;;;;5012875;28;21000;-50
2021/12/09 04:44:55;;;;;;;72.13;42.20;;;-0.90;99.90;;;;;;5009572;28;20498;-51
2021/12/09 04:47:21;;;;;;;71.83;42.80;;;-0.80;99.90;;;;;;5008844;28;20587;-51
2021/12/09 04:49:48;;;;;;;71.33;43.27;;;-0.80;99.90;;;;;;5008732;28;20502;-51
2021/12/09 04:52:15;;;;;;;68.27;42.27;;;-0.80;99.90;;;;;;5010942;28;20514;-51
2021/12/09 04:54:42;;;;;;;67.27;41.77;;;-0.80;99.90;;;;;;5008655;28;20523;-50
2021/12/09 04:57:10;;;;;;;71.87;46.17;;;-0.90;99.90;;;;;;5008075;28;20639;-51
2021/12/09 04:59:38;;;;;;;66.33;42.77;;;-0.90;99.90;;;;;;5011189;28;20538;-51
2021/12/09 05:02:09;;;;;;;67.67;41.73;;;-0.90;99.90;;;;;;5008027;28;20490;-52
2021/12/09 05:04:35;;;;;;;69.37;42.43;;;-0.90;99.90;;;;;;5011496;28;20456;-52
2021/12/09 05:07:02;;;;;;;72.60;40.63;;;-0.90;99.90;;;;;;5011278;28;21013;-53
2021/12/09 05:09:29;;;;;;;63.50;38.57;;;-1.00;99.90;;;;;;5008900;28;20483;-53
2021/12/09 05:11:56;;;;;;;74.83;43.97;;;-0.80;99.90;;;;;;5008459;28;20455;-48
2021/12/09 05:14:24;;;;;;;71.87;41.03;;;-0.60;99.90;;;;;;5004750;28;20599;-51
2021/12/09 05:16:55;;;;;;;69.57;42.40;;;-0.60;99.90;;;;;;5005498;28;20582;-48
2021/12/09 05:19:22;;;;;;;65.87;42.23;;;-0.60;99.90;;;;;;5011404;28;20857;-49
2021/12/09 05:21:50;;;;;;;66.40;41.07;;;-0.60;99.90;;;;;;5008865;28;20498;-49
2021/12/09 05:24:17;;;;;;;65.20;40.77;;;-0.60;99.90;;;;;;5012488;28;22618;-48
2021/12/09 05:26:47;;;;;;;65.00;39.13;;;-0.60;99.90;;;;;;5010478;28;20566;-48
2021/12/09 05:29:15;;;;;;;63.10;40.70;;;-0.70;99.90;;;;;;5011078;28;20541;-49
2021/12/09 05:34:28;;;;;;;60.43;41.10;;;-0.70;99.90;;;;;;4999785;28;20606;-49
2021/12/09 05:36:55;;;;;;;62.53;38.97;;;-0.70;99.90;;;;;;5007658;28;21125;-48
2021/12/09 05:39:22;;;;;;;62.00;40.13;;;-0.70;99.90;;;;;;5007859;28;20910;-48
2021/12/09 05:41:49;;;;;;;66.83;40.37;;;-0.70;99.90;;;;;;5011095;28;20558;-48
2021/12/09 05:44:16;;;;;;;65.00;38.93;;;-0.60;99.90;;;;;;5008602;28;20952;-48
2021/12/09 05:46:46;;;;;;;67.40;38.50;;;-0.60;99.90;;;;;;5010862;28;20534;-48
2021/12/09 05:49:14;;;;;;;64.27;38.27;;;-0.50;99.90;;;;;;5007263;28;20499;-48
2021/12/09 05:51:43;;;;;;;60.27;36.07;;;-0.40;77.30;;;;;;5010635;28;20471;-48
2021/12/09 05:54:09;;;;;;;62.43;40.10;;;-0.40;25.40;;;;;;5011458;28;20511;-52
2021/12/09 05:56:36;;;;;;;61.40;38.53;;;-0.50;31.30;;;;;;5010637;28;20506;-51
2021/12/09 05:59:04;;;;;;;63.57;40.83;;;-0.50;99.90;;;;;;5008847;28;20948;-52
2021/12/09 06:01:31;;;;;;;57.23;37.50;;;-0.50;99.90;;;;;;5006712;28;20546;-52
2021/12/09 06:03:59;;;;;;;60.60;36.67;;;-0.60;99.90;;;;;;5010284;28;20499;-55
2021/12/09 06:06:25;;;;;;;62.53;37.30;;;-0.70;99.90;;;;;;5008495;28;20547;-55
2021/12/09 06:08:52;;;;;;;64.33;38.53;;;-0.70;99.90;;;;;;5007766;28;20555;-55
2021/12/09 06:11:19;;;;;;;65.30;38.67;;;-0.60;99.90;;;;;;5012258;28;20447;-54
2021/12/09 06:13:47;;;;;;;60.73;38.57;;;-0.60;99.90;;;;;;5007818;28;20515;-54
2021/12/09 06:16:14;;;;;;;66.80;39.63;;;-0.60;99.90;;;;;;5011688;28;20489;-56
2021/12/09 06:18:40;;;;;;;67.53;40.60;;;-0.60;99.90;;;;;;5004785;28;20677;-54
2021/12/09 06:21:08;;;;;;;62.10;36.93;;;-0.70;99.90;;;;;;5003792;28;20961;-54
2021/12/09 06:23:35;;;;;;;63.37;38.80;;;-0.60;99.90;;;;;;5004372;28;20561;-54
2021/12/09 06:26:03;;;;;;;72.13;39.93;;;-0.60;99.90;;;;;;5008918;28;20495;-55
2021/12/09 06:28:29;;;;;;;68.50;39.43;;;-0.60;99.90;;;;;;5006688;28;20534;-54
2021/12/09 06:30:56;;;;;;;62.53;37.60;;;-0.60;99.90;;;;;;5008858;28;20495;-54
2021/12/09 06:33:23;;;;;;;68.70;42.10;;;-0.50;99.90;;;;;;5008220;28;20499;-54
2021/12/09 06:35:50;;;;;;;56.47;37.27;;;-0.60;99.90;;;;;;5005558;28;20472;-54
2021/12/09 06:38:18;;;;;;;65.10;36.97;;;-0.50;99.90;;;;;;5000573;28;20522;-54
2021/12/09 06:40:46;;;;;;;65.23;39.27;;;-0.60;99.90;;;;;;5010230;28;20988;-54
2021/12/09 06:43:13;;;;;;;55.27;35.87;;;-0.70;99.90;;;;;;5000007;28;20459;-54
2021/12/09 06:45:41;;;;;;;64.73;36.73;;;-0.70;99.90;;;;;;4991743;28;20468;-54
2021/12/09 06:48:09;;;;;;;60.70;37.90;;;-0.60;99.90;;;;;;5002590;28;21103;-55
2021/12/09 06:50:36;;;;;;;58.93;36.83;;;-0.60;99.90;;;;;;5011429;28;20514;-54
2021/12/09 06:53:04;;;;;;;63.20;37.93;;;-0.60;99.90;;;;;;5008231;28;20534;-55
2021/12/09 06:55:33;;;;;;;61.10;37.70;;;-0.50;99.90;;;;;;5009991;28;20494;-54
2021/12/09 06:57:59;;;;;;;65.07;36.23;;;-0.50;99.90;;;;;;5005292;28;20483;-55
2021/12/09 07:00:29;;;;;;;63.83;37.80;;;-0.50;99.90;;;;;;5010352;28;20455;-54
2021/12/09 07:02:57;;;;;;;63.40;36.70;;;-0.50;99.90;;;;;;5003310;28;21033;-54
2021/12/09 07:05:25;;;;;;;58.23;37.60;;;-0.50;99.90;;;;;;5008000;28;20452;-54
2021/12/09 07:07:52;;;;;;;64.93;38.67;;;-0.60;99.90;;;;;;5004255;28;20508;-47
2021/12/09 07:10:22;;;;;;;64.60;40.03;;;-0.60;99.90;;;;;;4996821;28;20832;-49
2021/12/09 07:12:50;;;;;;;57.57;37.10;;;-0.60;99.90;;;;;;5003484;28;20460;-57
2021/12/09 07:15:17;;;;;;;59.87;39.00;;;-0.60;99.90;;;;;;5003173;28;20499;-56
2021/12/09 07:17:44;;;;;;;63.03;38.37;;;-0.60;99.90;;;;;;5010094;28;20575;-54
2021/12/09 07:20:14;;;;;;;61.90;37.57;;;-0.60;99.90;;;;;;5009122;28;20555;-54
2021/12/09 07:22:40;;;;;;;54.90;36.60;;;-0.60;99.90;;;;;;5006025;28;20566;-55
2021/12/09 07:25:08;;;;;;;56.17;36.20;;;-0.70;94.60;;;;;;5013223;28;20545;-54
2021/12/09 07:27:34;;;;;;;55.73;35.90;;;-0.70;83.70;;;;;;5016288;28;20590;-55
2021/12/09 07:30:03;;;;;;;56.90;36.73;;;-0.70;79.60;;;;;;5010748;28;20443;-54
2021/12/09 07:32:29;;;;;;;65.50;38.50;;;-0.70;88.50;;;;;;5009960;28;20447;-56
2021/12/09 07:34:56;;;;;;;65.93;39.13;;;-0.70;67.70;;;;;;5011048;28;21063;-54
2021/12/09 07:37:22;;;;;;;62.23;38.07;;;-0.70;75.80;;;;;;5009696;28;21091;-54
2021/12/09 07:39:49;;;;;;;62.63;39.23;;;-0.70;78.40;;;;;;5013882;28;20538;-54
2021/12/09 07:42:17;;;;;;;57.60;39.13;;;-0.70;73.30;;;;;;5014105;28;20490;-55
2021/12/09 07:44:44;;;;;;;59.90;39.03;;;-0.70;70.70;;;;;;5011886;28;20459;-55
2021/12/09 07:47:12;;;;;;;71.23;39.97;;;-0.70;75.40;;;;;;5013526;28;20583;-55
2021/12/09 07:49:39;;;;;;;59.77;37.70;;;-0.70;60.10;;;;;;5013681;28;20505;-55
2021/12/09 07:52:06;;;;;;;59.03;37.35;;;-0.70;60.00;;;;;;5012232;28;20541;-56
2021/12/09 07:54:33;;;;;;;61.90;38.30;;;-0.70;66.80;;;;;;5007441;28;22032;-54
2021/12/09 07:57:01;;;;;;;70.93;41.00;;;-0.60;48.80;;;;;;5021137;28;20933;-55
2021/12/09 07:59:28;;;;;;;62.23;39.80;;;-0.60;48.40;;;;;;5006438;28;20455;-55
2021/12/09 08:01:54;;;;;;;63.30;39.00;;;-0.50;50.10;;;;;;5011439;28;20901;-56
2021/12/09 08:04:22;;;;;;;62.70;38.63;;;-0.50;54.00;;;;;;5011051;28;20973;-54
2021/12/09 08:06:49;;;;;;;62.53;39.90;;;-0.60;69.50;;;;;;5008053;28;20575;-55
2021/12/09 08:09:16;;;;;;;61.43;37.13;;;-0.60;68.70;;;;;;5008260;28;20582;-55
2021/12/09 08:11:43;;;;;;;64.87;39.07;;;-0.60;69.50;;;;;;5014404;28;20451;-51
2021/12/09 08:14:11;;;;;;;64.73;39.17;;;-0.50;71.50;;;;;;5012150;28;20480;-47
2021/12/09 08:16:39;;;;;;;63.67;39.60;;;-0.50;70.60;;;;;;5011429;28;20463;-55
2021/12/09 08:19:06;;;;;;;69.73;41.40;;;-0.50;72.10;;;;;;5012666;28;20463;-48
2021/12/09 08:21:36;;;;;;;73.07;42.30;;;-0.50;80.60;;;;;;5011635;28;20992;-55
2021/12/09 08:24:04;;;;;;;63.90;41.20;;;-0.50;78.70;;;;;;5014734;28;20821;-50
2021/12/09 08:26:31;;;;;;;67.07;40.90;;;-0.50;80.60;;;;;;5013592;28;21009;-50
2021/12/09 08:28:57;;;;;;;65.70;40.70;;;-0.60;79.50;;;;;;5011495;28;20554;-50
2021/12/09 08:31:26;;;;;;;66.57;42.13;;;-0.60;76.40;;;;;;5008508;28;20512;-50
2021/12/09 08:33:53;;;;;;;68.10;41.43;;;-0.60;62.10;;;;;;5013376;28;20447;-52
2021/12/09 08:36:19;;;;;;;65.20;42.03;;;-0.60;71.50;;;;;;5022111;28;20483;-51
2021/12/09 08:38:47;;;;;;;66.53;40.37;;;-0.50;54.50;;;;;;5008350;28;20518;-46
2021/12/09 08:41:15;;;;;;;65.00;39.63;;;-0.50;56.80;;;;;;5011848;28;20496;-49
2021/12/09 08:43:41;;;;;;;69.80;40.43;;;-0.50;69.30;;;;;;5012843;28;20983;-51
2021/12/09 08:46:08;;;;;;;74.63;42.20;;;-0.70;85.60;;;;;;5011792;28;20977;-51
2021/12/09 08:48:35;;;;;;;66.30;40.40;;;-0.60;64.60;;;;;;5003897;28;20566;-51
2021/12/09 08:51:01;;;;;;;66.63;41.47;;;-0.60;50.30;;;;;;5001219;28;20598;-51
2021/12/09 08:53:28;;;;;;;67.67;42.20;;;-0.60;54.30;;;;;;5011208;28;20470;-55
2021/12/09 08:55:56;;;;;;;62.23;39.73;;;-0.60;56.80;;;;;;5009386;28;20579;-46
2021/12/09 08:58:24;;;;;;;65.70;41.87;;;-0.50;63.70;;;;;;5009750;28;20601;-47
2021/12/09 09:00:53;;;;;;;68.67;42.00;;;-0.50;68.20;;;;;;5011742;28;20452;-50
2021/12/09 09:03:20;;;;;;;68.97;42.80;;;-0.50;76.40;;;;;;5008259;28;20453;-55
2021/12/09 09:05:47;;;;;;;64.97;41.17;;;-0.50;65.60;;;;;;5013068;28;20548;-54
2021/12/09 09:08:14;;;;;;;71.10;42.77;;;-0.50;73.90;;;;;;5008856;28;20491;-47
2021/12/09 09:10:43;;;;;;;68.40;41.80;;;-0.50;79.30;;;;;;5010640;28;20498;-48
2021/12/09 09:13:11;;;;;;;66.07;40.13;;;-0.50;78.30;;;;;;5008494;28;20472;-47
2021/12/09 09:15:38;;;;;;;66.33;42.03;;;-0.50;82.60;;;;;;5008291;28;20511;-52
2021/12/09 09:18:06;;;;;;;63.00;41.53;;;-0.50;77.30;;;;;;5009970;28;20484;-47
2021/12/09 09:20:34;;;;;;;59.90;39.47;;;-0.50;77.00;;;;;;5005350;28;20940;-51
2021/12/09 09:23:01;;;;;;;63.07;38.83;;;-0.50;66.80;;;;;;5010441;28;20455;-50
2021/12/09 09:25:29;;;;;;;64.60;43.10;;;-0.40;69.60;;;;;;5009671;28;20905;-49
2021/12/09 09:27:57;;;;;;;68.03;42.17;;;-0.40;76.80;;;;;;5014545;28;20528;-56
2021/12/09 09:30:33;;;;;;;65.23;40.97;;;-0.30;73.90;;;;;;5014593;28;20443;-54
2021/12/09 09:33:00;;;;;;;65.77;40.70;;;-0.30;78.80;;;;;;5012238;28;20456;-47
2021/12/09 09:35:26;;;;;;;69.67;43.10;;;-0.20;85.00;;;;;;5001726;28;20571;-46
2021/12/09 09:37:53;;;;;;;61.63;39.60;;;-0.20;99.90;;;;;;5010379;28;20551;-50
2021/12/09 09:40:27;;;;;;;71.10;42.17;;;-0.20;99.90;;;;;;5010831;28;20554;-50
2021/12/09 09:43:02;;;;;;;62.87;39.13;;;-0.20;99.90;;;;;;5011226;28;20468;-47
2021/12/09 09:45:31;;;;;;;68.10;40.20;;;-0.20;99.90;;;;;;5010545;28;20451;-51
2021/12/09 09:47:58;;;;;;;63.87;39.90;;;-0.20;99.90;;;;;;5004481;28;20853;-51
2021/12/09 09:50:26;;;;;;;68.73;41.93;;;-0.20;99.90;;;;;;5010818;28;20941;-51
2021/12/09 09:52:53;;;;;;;66.77;40.73;;;-0.20;99.90;;;;;;5020225;28;20486;-52
2021/12/09 09:55:21;;;;;;;66.63;38.43;;;-0.10;99.90;;;;;;5010751;28;20526;-53
2021/12/09 09:57:50;;;;;;;67.13;40.30;;;-0.10;99.90;;;;;;5015467;22;20497;-51
2021/12/09 10:00:18;;;;;;;69.43;43.73;;;-0.20;99.90;;;;;;4983312;28;20551;-51
2021/12/09 10:02:52;;;;;;;63.70;40.53;;;-0.10;99.90;;;;;;4980129;28;20503;-50
2021/12/09 10:05:25;;;;;;;67.67;39.47;;;-0.10;99.90;;;;;;4987793;28;20990;-49
2021/12/09 10:07:53;;;;;;;66.60;40.50;;;-0.10;99.90;;;;;;4988410;28;20484;-50
2021/12/09 10:10:19;;;;;;;62.73;41.40;;;-0.10;99.90;;;;;;4990214;28;20552;-51
2021/12/09 10:13:01;;;;;;;67.30;41.20;;;0.00;99.90;;;;;;4990567;28;20488;-51
2021/12/09 10:15:49;;;;;;;61.20;39.03;;;0.00;99.90;;;;;;4978685;28;20599;-50
2021/12/09 10:18:36;;;;;;;62.03;40.27;;;0.10;99.90;;;;;;4984427;28;20619;-51
2021/12/09 10:21:04;;;;;;;68.90;42.90;;;0.10;99.90;;;;;;4986529;28;21017;-49
2021/12/09 10:23:37;;;;;;;60.10;40.10;;;0.10;99.90;;;;;;4987384;28;21013;-51
2021/12/09 10:26:16;;;;;;;62.53;41.27;;;0.20;99.90;;;;;;4992279;28;20445;-50
2021/12/09 10:28:49;;;;;;;61.13;41.33;;;0.30;99.90;;;;;;4986221;28;20480;-51
2021/12/09 10:31:19;;;;;;;73.83;42.10;;;0.30;99.90;;;;;;4988156;28;20483;-51
2021/12/09 10:34:04;;;;;;;71.10;42.23;;;0.30;99.90;;;;;;4989834;28;20464;-51
2021/12/09 10:36:55;;;;;;;65.27;40.80;;;0.20;99.90;;;;;;4991339;28;20917;-50
2021/12/09 10:39:37;;;;;;;67.43;42.87;;;0.10;99.90;;;;;;4991765;28;20503;-51
2021/12/09 10:42:07;;;;;;;68.03;42.73;;;0.00;99.90;;;;;;4982266;28;20549;-51
2021/12/09 10:44:51;;;;;;;60.67;40.90;;;-0.10;99.90;;;;;;4985739;28;20460;-51
2021/12/09 10:47:32;;;;;;;61.17;41.00;;;0.00;99.90;;;;;;4990566;28;20586;-50
2021/12/09 10:50:07;;;;;;;67.30;43.70;;;-0.20;99.90;;;;;;4985912;28;20457;-50
2021/12/09 10:52:41;;;;;;;62.30;40.57;;;-0.10;99.90;;;;;;4987752;28;20539;-51
2021/12/09 10:55:22;;;;;;;64.30;41.00;;;-0.10;99.90;;;;;;4989724;28;20949;-50
2021/12/09 10:58:01;;;;;;;58.33;38.90;;;0.00;99.90;;;;;;4990518;28;20581;-51
2021/12/09 11:00:37;;;;;;;62.83;41.47;;;0.00;99.90;;;;;;4992138;28;20480;-51
2021/12/09 11:03:10;;;;;;;63.93;40.70;;;0.00;99.90;;;;;;4988646;28;21017;-51
2021/12/09 11:05:40;;;;;;;59.50;40.60;;;0.10;99.90;;;;;;4991277;28;20938;-51
2021/12/09 11:08:21;;;;;;;55.90;38.50;;;0.00;99.90;;;;;;4986734;28;21093;-50
2021/12/09 11:10:53;;;;;;;59.17;39.10;;;0.00;99.90;;;;;;4988880;28;20492;-50
2021/12/09 11:13:22;;;;;;;63.30;38.03;;;0.10;99.90;;;;;;4990674;28;20550;-51
2021/12/09 11:15:54;;;;;;;57.97;36.87;;;0.20;99.90;;;;;;4991831;28;20480;-50
2021/12/09 11:18:33;;;;;;;60.50;39.17;;;0.00;99.90;;;;;;4995479;28;20472;-50
2021/12/09 11:21:04;;;;;;;64.67;37.90;;;0.10;99.90;;;;;;4982911;28;20522;-50
2021/12/09 11:23:34;;;;;;;60.53;39.93;;;0.10;99.90;;;;;;4994288;28;20480;-50
2021/12/09 11:26:55;;;;;;;54.53;36.73;;;0.00;99.90;;;;;;4994403;28;20453;-50
2021/12/09 11:29:25;;;;;;;50.53;35.93;;;0.00;99.90;;;;;;4951822;29;20466;-50
2021/12/09 11:32:01;;;;;;;62.47;37.40;;;0.10;99.90;;;;;;4953544;29;20470;-51
2021/12/09 11:34:34;;;;;;;59.70;38.90;;;0.00;99.90;;;;;;4979839;28;20448;-50
2021/12/09 11:37:10;;;;;;;49.50;35.80;;;0.20;99.90;;;;;;4995049;28;20910;-49
2021/12/09 11:39:38;;;;;;;52.93;35.77;;;0.30;99.90;;;;;;4990118;28;20460;-52
2021/12/09 11:42:20;;;;;;;50.80;36.93;;;0.30;99.90;;;;;;4992088;28;20469;-50
2021/12/09 11:44:48;;;;;;;56.20;36.40;;;0.30;99.90;;;;;;4994296;28;20886;-52
2021/12/09 11:47:15;;;;;;;56.07;35.27;;;0.10;99.90;;;;;;4991606;28;20555;-50
2021/12/09 11:49:43;;;;;;;51.33;34.47;;;0.20;99.90;;;;;;4993264;28;20496;-51
2021/12/09 11:52:12;;;;;;;51.53;34.73;;;0.30;99.90;;;;;;4989461;28;20579;-50
2021/12/09 11:54:39;;;;;;;56.23;37.73;;;0.20;99.90;;;;;;4991104;28;20464;-51
2021/12/09 11:57:17;;;;;;;55.43;37.97;;;0.20;99.90;;;;;;4986227;28;20939;-50
2021/12/09 12:11:39;;;;;;;66.57;37.10;;;0.00;99.90;;;;;;4994231;28;20455;-50
2021/12/09 12:14:27;;;;;;;53.13;36.60;;;0.00;99.90;;;;;;4993903;28;20449;-51
2021/12/09 12:17:10;;;;;;;52.10;35.33;;;0.20;99.90;;;;;;4989388;28;20550;-50
2021/12/09 12:20:04;;;;;;;61.57;37.77;;;0.30;99.90;;;;;;4993522;28;20468;-51
2021/12/09 12:26:08;;;;;;;65.00;39.77;;;0.40;99.90;;;;;;4966115;28;20438;-51
2021/12/09 12:28:48;;;;;;;58.27;39.70;;;0.40;99.90;;;;;;4991117;28;20484;-51
2021/12/09 12:32:07;;;;;;;58.50;37.43;;;0.40;99.90;;;;;;4985648;28;20894;-51
2021/12/09 12:37:45;;;;;;;55.60;37.43;;;0.50;99.90;;;;;;4989503;28;20456;-50
2021/12/09 12:40:15;;;;;;;50.80;35.87;;;0.60;99.90;;;;;;4992808;28;20468;-53
2021/12/09 12:42:51;;;;;;;52.37;34.30;;;0.50;99.90;;;;;;4990476;28;20524;-50
2021/12/09 12:45:45;;;;;;;54.33;35.80;;;0.50;99.90;;;;;;4983097;28;20503;-51
2021/12/09 12:48:43;;;;;;;54.43;37.40;;;0.50;93.30;;;;;;4992501;28;20479;-50
2021/12/09 12:51:15;;;;;;;54.03;36.90;;;0.40;99.90;;;;;;4993540;28;20461;-50
2021/12/09 12:53:43;;;;;;;54.90;36.97;;;0.40;99.90;;;;;;4993223;28;20469;-51
2021/12/09 12:56:13;;;;;;;49.83;34.30;;;0.40;99.90;;;;;;4994128;28;20484;-50
2021/12/09 12:59:05;;;;;;;54.90;37.90;;;0.40;99.90;;;;;;4988777;28;20551;-50
2021/12/09 13:01:33;;;;;;;54.70;35.60;;;0.30;99.90;;;;;;4968110;28;20511;-50